You are not logged in, Click here to log in
蘇萬那普國際機場(曼谷國際機場) BKK / VTBS 泰國曼谷以東25公里北欖府Bang Phli區
ICAO: VTBS Country: 泰國曼谷以東25公里北欖府Bang Phli區
Latitude: 13.69 Longitude: 100.75
Total Arrivals: 49 Total Departures: 49
Latest Arrival: VJ903 (VVNB-VTBS)Arthur. Kung Latest Departure: AI331 (VTBS-VABB)Arthur. Kung
Scenery:
METAR : VTBS 131030Z 07006KT 030V100 8000 NSC 30/17 Q1013 NOSIG

蘇萬那普國際機場(曼谷國際機場) BKK

You are accessing this site from IP address 100.26.176.182. Virtual Airline. CMS by phpVMS.Website designed by Zumeweb and edited by Theo Bearman.
There is 0 User(s) Online: | and 4 Guest(s) Online.
All information on this site is for fight simulation purposes only. This site is for flight logging for pilots of Virtual Airline&模擬飛行論壇 FlySim only.